Time;durP1;ratioP1;P1;durP2;ratioP2;P2;SDS_P1;SDS_P2;PMS_P1;PMS_P2;Temp;Humidity;BMP_temperature;BMP_pressure;BME280_temperature;BME280_humidity;BME280_pressure;Samples;Min_cycle;Max_cycle;Signal;HPM_P1;HPM_P2
2022/03/10 00:00:16;;;;;;;5.10;3.33;;;5.60;33.10;;;;;;4929909;29;20124;-78
2022/03/10 00:02:43;;;;;;;4.70;3.13;;;5.60;33.00;;;;;;4913913;28;20037;-80
2022/03/10 00:05:10;;;;;;;3.97;2.55;;;5.50;33.00;;;;;;4928957;29;21031;-79
2022/03/10 00:07:36;;;;;;;4.65;2.78;;;5.50;33.00;;;;;;4931112;29;20029;-79
2022/03/10 00:10:03;;;;;;;5.53;3.08;;;5.50;33.10;;;;;;4899799;28;20048;-79
2022/03/10 00:12:29;;;;;;;4.70;3.10;;;5.50;33.10;;;;;;4914167;29;20116;-79
2022/03/10 00:14:55;;;;;;;5.60;3.88;;;5.50;33.10;;;;;;4900364;29;20116;-79
2022/03/10 00:17:20;;;;;;;5.13;3.10;;;5.40;33.10;;;;;;4871097;29;20045;-78
2022/03/10 00:19:46;;;;;;;3.85;2.72;;;5.40;33.10;;;;;;4899498;28;20498;-78
2022/03/10 00:22:12;;;;;;;4.28;2.80;;;5.50;33.30;;;;;;4899175;28;20351;-79
2022/03/10 00:24:39;;;;;;;5.45;3.10;;;5.50;33.20;;;;;;4929991;28;20119;-79
2022/03/10 00:27:06;;;;;;;4.28;3.13;;;5.50;33.20;;;;;;4899484;29;20516;-78
2022/03/10 00:29:32;;;;;;;4.60;3.00;;;5.50;33.10;;;;;;4896802;29;20130;-79
2022/03/10 00:31:58;;;;;;;5.38;3.33;;;5.60;33.10;;;;;;4901171;29;20099;-80
2022/03/10 00:34:24;;;;;;;4.13;3.15;;;5.60;33.00;;;;;;4917005;28;20044;-79
2022/03/10 00:36:50;;;;;;;4.10;2.60;;;5.60;33.00;;;;;;4933562;29;20416;-79
2022/03/10 00:39:16;;;;;;;3.65;2.85;;;5.60;33.00;;;;;;4903471;29;20139;-79
2022/03/10 00:41:42;;;;;;;4.55;2.85;;;5.60;32.90;;;;;;4901798;28;20412;-78
2022/03/10 00:44:08;;;;;;;5.90;3.17;;;5.60;32.80;;;;;;4901792;29;20047;-79
2022/03/10 00:46:35;;;;;;;5.28;2.97;;;5.60;32.80;;;;;;4902754;28;20040;-79
2022/03/10 00:49:01;;;;;;;4.10;2.47;;;5.60;32.80;;;;;;4902131;29;20177;-78
2022/03/10 00:51:27;;;;;;;4.60;2.88;;;5.60;32.80;;;;;;4902690;29;20115;-78
2022/03/10 00:53:53;;;;;;;5.97;3.05;;;5.60;32.80;;;;;;4916633;29;20036;-79
2022/03/10 00:56:19;;;;;;;4.45;2.90;;;5.50;32.70;;;;;;4901738;28;20084;-79
2022/03/10 00:58:45;;;;;;;4.55;3.38;;;5.50;32.70;;;;;;4900836;29;20032;-81
2022/03/10 01:01:11;;;;;;;3.95;2.95;;;5.50;32.70;;;;;;4901145;28;20108;-80
2022/03/10 01:03:37;;;;;;;4.28;2.88;;;5.50;32.80;;;;;;4901146;29;20036;-80
2022/03/10 01:06:03;;;;;;;5.22;3.17;;;5.40;32.80;;;;;;4933564;29;20134;-81
2022/03/10 01:08:29;;;;;;;4.95;3.25;;;5.50;33.00;;;;;;4917373;28;20168;-81
2022/03/10 01:10:55;;;;;;;4.90;3.20;;;5.40;33.10;;;;;;4873041;29;20128;-81
2022/03/10 01:13:21;;;;;;;3.97;3.08;;;5.40;33.20;;;;;;4903003;29;20195;-81
2022/03/10 01:15:47;;;;;;;3.80;3.03;;;5.40;33.20;;;;;;4902149;29;20495;-81
2022/03/10 01:18:14;;;;;;;4.97;2.85;;;5.50;33.30;;;;;;4934596;29;20044;-80
2022/03/10 01:20:40;;;;;;;4.03;2.60;;;5.50;33.30;;;;;;4901482;29;20515;-81
2022/03/10 01:23:06;;;;;;;6.53;3.45;;;5.60;33.30;;;;;;4902273;29;20040;-81
2022/03/10 01:25:32;;;;;;;4.00;3.03;;;5.60;33.30;;;;;;4902010;29;20074;-81
2022/03/10 01:27:58;;;;;;;5.30;2.90;;;5.60;33.30;;;;;;4900678;29;20084;-81
2022/03/10 01:30:24;;;;;;;5.90;3.25;;;5.60;33.20;;;;;;4901274;29;20032;-81
2022/03/10 01:32:50;;;;;;;5.68;3.63;;;5.60;33.20;;;;;;4899566;29;20130;-80
2022/03/10 01:35:17;;;;;;;3.25;2.95;;;5.60;33.20;;;;;;4931675;28;20623;-82
2022/03/10 01:37:43;;;;;;;5.53;2.97;;;5.50;33.20;;;;;;4916418;28;20048;-83
2022/03/10 01:40:12;;;;;;;5.47;3.53;;;5.60;33.30;;;;;;4901811;29;20512;-81
2022/03/10 01:42:38;;;;;;;3.78;3.35;;;5.60;33.20;;;;;;4899773;29;20113;-81
2022/03/10 01:45:06;;;;;;;4.15;3.17;;;5.60;33.20;;;;;;4884870;29;20047;-81
2022/03/10 01:47:32;;;;;;;4.10;2.80;;;5.50;33.10;;;;;;4916300;29;20091;-81
2022/03/10 01:49:58;;;;;;;4.18;3.00;;;5.50;33.10;;;;;;4931496;28;20033;-82
2022/03/10 01:52:24;;;;;;;3.80;2.85;;;5.50;33.10;;;;;;4885235;29;20112;-81
2022/03/10 01:54:50;;;;;;;6.25;3.17;;;5.50;33.10;;;;;;4931102;29;20067;-80
2022/03/10 01:57:17;;;;;;;5.43;3.53;;;5.50;33.20;;;;;;4905187;29;20079;-81
2022/03/10 01:59:43;;;;;;;3.92;2.88;;;5.50;33.20;;;;;;4916184;28;20183;-81
2022/03/10 02:02:10;;;;;;;5.60;3.17;;;5.40;33.20;;;;;;4912825;29;20131;-81
2022/03/10 02:04:36;;;;;;;5.00;3.17;;;5.40;33.30;;;;;;4900759;29;20064;-80
2022/03/10 02:07:04;;;;;;;5.18;3.47;;;5.50;33.30;;;;;;4885578;29;20527;-81
2022/03/10 02:12:15;;;;;;;5.30;3.22;;;5.50;33.30;;;;;;4933501;29;20059;-80
2022/03/10 02:17:26;;;;;;;4.75;2.83;;;5.50;33.20;;;;;;4884742;29;20108;-79
2022/03/10 02:19:55;;;;;;;4.63;3.03;;;5.50;33.10;;;;;;4899783;29;20163;-80
2022/03/10 02:22:23;;;;;;;3.20;2.70;;;5.50;33.00;;;;;;4886267;29;20048;-79
2022/03/10 02:24:50;;;;;;;4.35;2.88;;;5.60;33.10;;;;;;4915528;28;20095;-80
2022/03/10 02:27:22;;;;;;;5.35;2.80;;;5.60;33.00;;;;;;4900165;29;20036;-80
2022/03/10 02:29:51;;;;;;;3.45;2.83;;;5.60;33.00;;;;;;4914668;28;20087;-80
2022/03/10 02:32:17;;;;;;;4.70;3.33;;;5.60;33.00;;;;;;4885996;29;20072;-82
2022/03/10 02:34:44;;;;;;;4.15;3.00;;;5.60;33.00;;;;;;4901194;28;20045;-80
2022/03/10 02:37:11;;;;;;;4.40;3.30;;;5.60;33.00;;;;;;4900422;29;20036;-83
2022/03/10 02:39:38;;;;;;;4.68;3.20;;;5.60;33.00;;;;;;4899879;28;20052;-81
2022/03/10 02:42:05;;;;;;;4.88;3.17;;;5.60;33.00;;;;;;4898944;29;20040;-82
2022/03/10 02:44:31;;;;;;;6.10;2.85;;;5.50;33.00;;;;;;4899656;29;20052;-80
2022/03/10 02:46:57;;;;;;;4.47;2.97;;;5.50;33.00;;;;;;4900647;29;20033;-82
2022/03/10 02:49:23;;;;;;;3.90;2.95;;;5.50;33.00;;;;;;4899861;29;20028;-82
2022/03/10 02:51:50;;;;;;;4.85;3.00;;;5.50;33.00;;;;;;4897845;29;20040;-82
2022/03/10 02:54:16;;;;;;;4.15;3.20;;;5.50;33.00;;;;;;4881078;29;20039;-81
2022/03/10 02:56:42;;;;;;;3.72;2.90;;;5.50;33.00;;;;;;4899636;29;20036;-82
2022/03/10 02:59:10;;;;;;;3.83;2.80;;;5.50;33.00;;;;;;4903137;29;20523;-82
2022/03/10 03:01:36;;;;;;;3.03;2.72;;;5.50;33.00;;;;;;4899625;28;20135;-82
2022/03/10 03:04:03;;;;;;;5.28;3.28;;;5.50;33.00;;;;;;4900171;29;20287;-83
2022/03/10 03:06:29;;;;;;;5.45;3.22;;;5.50;32.90;;;;;;4901948;29;20036;-82
2022/03/10 03:08:54;;;;;;;4.40;3.13;;;5.60;32.90;;;;;;4916113;29;20523;-81
2022/03/10 03:11:20;;;;;;;6.15;3.22;;;5.60;32.80;;;;;;4915389;29;20037;-81
2022/03/10 03:13:46;;;;;;;7.22;3.33;;;5.60;32.80;;;;;;4881845;29;20037;-81
2022/03/10 03:16:12;;;;;;;4.78;3.30;;;5.60;32.80;;;;;;4897732;29;20487;-81
2022/03/10 03:18:38;;;;;;;8.43;3.40;;;5.60;32.80;;;;;;4901437;28;20523;-81
2022/03/10 03:21:05;;;;;;;4.53;3.20;;;5.60;32.80;;;;;;4899100;29;20051;-82
2022/03/10 03:23:31;;;;;;;5.20;3.25;;;5.60;32.80;;;;;;4898302;29;20108;-81
2022/03/10 03:25:56;;;;;;;4.38;3.05;;;5.60;32.70;;;;;;4899698;28;20040;-78
2022/03/10 03:28:23;;;;;;;4.57;3.55;;;5.60;32.70;;;;;;4913847;28;20092;-78
2022/03/10 03:30:50;;;;;;;5.53;3.17;;;5.60;32.80;;;;;;4903517;28;20036;-79
2022/03/10 03:33:17;;;;;;;5.05;3.47;;;5.60;32.80;;;;;;4914249;29;20048;-80
2022/03/10 03:35:43;;;;;;;5.88;3.40;;;5.60;32.90;;;;;;4899750;28;20575;-79
2022/03/10 03:38:11;;;;;;;5.22;3.60;;;5.60;32.90;;;;;;4928965;28;20423;-77
2022/03/10 03:40:38;;;;;;;7.18;3.72;;;5.50;32.90;;;;;;4899597;28;20054;-79
2022/03/10 03:43:04;;;;;;;5.63;3.53;;;5.50;33.00;;;;;;4898849;29;20088;-79
2022/03/10 03:45:30;;;;;;;5.38;3.53;;;5.50;33.10;;;;;;4899960;29;20099;-78
2022/03/10 03:47:56;;;;;;;5.05;3.00;;;5.60;33.10;;;;;;4897326;29;20140;-79
2022/03/10 03:50:22;;;;;;;5.60;3.55;;;5.60;33.10;;;;;;4915790;28;20123;-79
2022/03/10 03:52:48;;;;;;;8.48;3.90;;;5.60;33.10;;;;;;4928593;28;20084;-79
2022/03/10 03:55:14;;;;;;;5.85;3.67;;;5.60;33.10;;;;;;4929607;28;20119;-79
2022/03/10 03:57:41;;;;;;;6.10;3.35;;;5.60;33.10;;;;;;4914274;29;20168;-79
2022/03/10 04:00:08;;;;;;;5.25;3.70;;;5.70;33.20;;;;;;4899407;29;20115;-79
2022/03/10 04:02:37;;;;;;;6.15;3.95;;;5.70;33.10;;;;;;4898525;28;20036;-81
2022/03/10 04:05:05;;;;;;;4.82;3.58;;;5.80;33.10;;;;;;4900057;28;20036;-76
2022/03/10 04:07:31;;;;;;;4.38;3.35;;;5.80;32.90;;;;;;4903690;29;20041;-78
2022/03/10 04:09:57;;;;;;;5.88;3.60;;;5.80;32.80;;;;;;4903883;29;20032;-77
2022/03/10 04:12:23;;;;;;;5.00;3.63;;;5.80;32.80;;;;;;4904093;29;20460;-76
2022/03/10 04:14:49;;;;;;;5.60;3.85;;;5.80;32.70;;;;;;4903583;29;20040;-77
2022/03/10 04:17:15;;;;;;;4.97;3.70;;;5.70;32.60;;;;;;4885237;29;20051;-78
2022/03/10 04:19:42;;;;;;;7.35;3.90;;;5.70;32.60;;;;;;4902438;29;20044;-78
2022/03/10 04:22:08;;;;;;;4.70;3.58;;;5.70;32.50;;;;;;4905200;29;20119;-76
2022/03/10 04:24:34;;;;;;;4.50;3.83;;;5.70;32.50;;;;;;4903131;29;20127;-76
2022/03/10 04:27:00;;;;;;;7.55;3.83;;;5.70;32.50;;;;;;4902008;29;20037;-78
2022/03/10 04:29:26;;;;;;;4.28;3.63;;;5.70;32.50;;;;;;4904721;29;20044;-78
2022/03/10 04:31:52;;;;;;;4.90;3.78;;;5.60;32.40;;;;;;4916758;29;20032;-78
2022/03/10 04:34:18;;;;;;;5.25;3.42;;;5.60;32.50;;;;;;4917533;29;20396;-77
2022/03/10 04:36:44;;;;;;;4.80;3.50;;;5.60;32.40;;;;;;4901415;28;20040;-79
2022/03/10 04:39:10;;;;;;;5.40;3.50;;;5.60;32.30;;;;;;4933582;29;20139;-79
2022/03/10 04:41:36;;;;;;;5.40;3.67;;;5.60;32.30;;;;;;4884775;29;20032;-79
2022/03/10 04:44:03;;;;;;;6.40;3.72;;;5.60;32.30;;;;;;4900864;29;20096;-79
2022/03/10 04:46:29;;;;;;;6.43;4.00;;;5.60;32.20;;;;;;4902730;29;20051;-78
2022/03/10 04:48:55;;;;;;;5.13;3.63;;;5.70;32.20;;;;;;4932460;28;20035;-80
2022/03/10 04:51:21;;;;;;;5.72;3.78;;;5.70;32.10;;;;;;4917643;29;20045;-79
2022/03/10 04:53:47;;;;;;;4.75;3.60;;;5.70;32.00;;;;;;4901297;29;20497;-78
2022/03/10 04:56:13;;;;;;;6.30;4.00;;;5.80;32.00;;;;;;4900607;29;20138;-79
2022/03/10 04:58:39;;;;;;;5.65;3.88;;;5.80;31.90;;;;;;4902266;28;20041;-79
2022/03/10 05:01:05;;;;;;;5.80;3.83;;;5.70;31.70;;;;;;4901801;28;20052;-78
2022/03/10 05:03:32;;;;;;;5.97;3.88;;;5.70;31.60;;;;;;4901767;29;20051;-78
2022/03/10 05:05:59;;;;;;;5.22;3.92;;;5.80;31.70;;;;;;4901622;28;20032;-84
2022/03/10 05:08:25;;;;;;;5.57;3.67;;;5.80;31.50;;;;;;4899656;29;20092;-81
2022/03/10 05:10:51;;;;;;;5.28;3.28;;;5.80;31.40;;;;;;4918360;29;20044;-83
2022/03/10 05:13:17;;;;;;;7.55;3.90;;;5.70;31.50;;;;;;4901100;29;20036;-82
2022/03/10 05:15:43;;;;;;;6.28;3.70;;;5.70;31.40;;;;;;4931791;29;20048;-81
2022/03/10 05:18:09;;;;;;;6.35;4.00;;;5.70;31.40;;;;;;4901280;29;20107;-82
2022/03/10 05:20:35;;;;;;;5.00;3.60;;;5.70;31.50;;;;;;4900401;29;20429;-82
2022/03/10 05:23:03;;;;;;;5.38;4.18;;;5.70;31.50;;;;;;4900263;29;20104;-81
2022/03/10 05:25:37;;;;;;;5.90;3.80;;;5.70;32.20;;;;;;4904203;28;20055;-82
2022/03/10 05:28:05;;;;;;;7.63;4.05;;;5.70;31.70;;;;;;4903864;28;20045;-82
2022/03/10 05:30:31;;;;;;;8.25;4.40;;;5.60;31.80;;;;;;4933355;29;20040;-82
2022/03/10 05:32:57;;;;;;;5.35;3.60;;;5.70;31.80;;;;;;4900753;29;20040;-81
2022/03/10 05:35:23;;;;;;;5.28;3.53;;;5.70;31.80;;;;;;4915829;29;20053;-82
2022/03/10 05:37:49;;;;;;;6.40;3.50;;;5.80;32.00;;;;;;4884650;29;20111;-82
2022/03/10 05:40:17;;;;;;;5.60;3.40;;;6.00;32.00;;;;;;4932621;29;20068;-80
2022/03/10 05:42:44;;;;;;;5.28;4.07;;;6.20;32.00;;;;;;4915472;29;20038;-82
2022/03/10 05:45:11;;;;;;;4.65;3.35;;;6.30;31.90;;;;;;4888207;29;20527;-82
2022/03/10 05:47:39;;;;;;;5.18;3.72;;;6.50;31.80;;;;;;4900225;28;20044;-82
2022/03/10 05:50:06;;;;;;;7.88;3.55;;;6.60;31.80;;;;;;4900660;29;20424;-79
2022/03/10 05:52:32;;;;;;;7.10;3.78;;;6.80;31.80;;;;;;4901730;28;20032;-78
2022/03/10 05:54:58;;;;;;;5.88;4.40;;;6.80;29.90;;;;;;4925671;28;20040;-79
2022/03/10 05:57:24;;;;;;;10.40;4.30;;;6.70;29.00;;;;;;4906906;29;20331;-80
2022/03/10 05:59:51;;;;;;;9.18;4.57;;;6.50;28.60;;;;;;4912873;29;20036;-79
2022/03/10 06:02:18;;;;;;;9.85;4.13;;;6.40;28.60;;;;;;4908487;29;20039;-79
2022/03/10 06:04:44;;;;;;;6.82;4.32;;;6.30;28.80;;;;;;4907848;29;20540;-79
2022/03/10 06:07:11;;;;;;;12.07;4.57;;;6.30;28.60;;;;;;4893234;29;20043;-79
2022/03/10 06:09:37;;;;;;;5.75;4.22;;;6.20;28.70;;;;;;4941415;28;20135;-79
2022/03/10 06:12:03;;;;;;;7.85;4.40;;;6.20;28.60;;;;;;4940926;29;20036;-78
2022/03/10 06:14:29;;;;;;;9.07;3.88;;;6.20;28.50;;;;;;4899966;29;20058;-79
2022/03/10 06:16:56;;;;;;;6.68;4.03;;;6.20;28.30;;;;;;4900507;28;20064;-79
2022/03/10 06:19:22;;;;;;;9.80;3.53;;;6.30;28.10;;;;;;4904250;29;20497;-78
2022/03/10 06:21:48;;;;;;;9.93;4.05;;;6.40;27.90;;;;;;4930855;28;20040;-78
2022/03/10 06:24:14;;;;;;;8.25;4.60;;;6.40;27.80;;;;;;4900000;29;20040;-78
2022/03/10 06:26:40;;;;;;;7.30;4.22;;;6.50;27.90;;;;;;4900709;28;20987;-79
2022/03/10 06:29:07;;;;;;;6.95;4.10;;;6.50;28.10;;;;;;4899766;29;20451;-80
2022/03/10 06:31:34;;;;;;;8.77;3.83;;;6.60;27.90;;;;;;4899163;28;20092;-79
2022/03/10 06:34:00;;;;;;;8.07;4.28;;;6.70;27.70;;;;;;4871548;28;20047;-79
2022/03/10 06:36:27;;;;;;;6.82;3.47;;;6.80;27.50;;;;;;4888115;29;20043;-78
2022/03/10 06:38:56;;;;;;;7.95;3.50;;;6.90;27.50;;;;;;4900519;28;21494;-78
2022/03/10 06:41:22;;;;;;;7.53;3.60;;;7.00;27.30;;;;;;4931021;29;20069;-79
2022/03/10 06:43:48;;;;;;;7.43;3.78;;;7.10;27.20;;;;;;4914295;29;20071;-78
2022/03/10 06:46:14;;;;;;;12.30;4.28;;;7.20;27.20;;;;;;4913869;28;20075;-77
2022/03/10 06:48:39;;;;;;;5.97;3.67;;;7.30;27.20;;;;;;4900206;28;20041;-78
2022/03/10 06:51:06;;;;;;;5.68;3.13;;;7.40;27.40;;;;;;4898743;29;20037;-79
2022/03/10 06:53:33;;;;;;;8.65;3.95;;;7.50;27.00;;;;;;4898923;29;20049;-79
2022/03/10 06:55:58;;;;;;;8.43;3.50;;;7.60;27.00;;;;;;4898454;29;20494;-77
2022/03/10 06:58:25;;;;;;;9.20;3.20;;;7.70;26.80;;;;;;4915940;29;20068;-78
2022/03/10 07:00:50;;;;;;;8.35;3.78;;;7.80;26.80;;;;;;4914360;28;20118;-79
2022/03/10 07:03:17;;;;;;;7.90;3.60;;;7.90;26.80;;;;;;4902716;29;20115;-78
2022/03/10 07:05:44;;;;;;;5.35;2.90;;;8.00;26.70;;;;;;4929582;28;20151;-78
2022/03/10 07:08:11;;;;;;;8.18;3.00;;;8.10;26.40;;;;;;4900962;29;20143;-78
2022/03/10 07:10:37;;;;;;;6.47;3.00;;;8.10;26.90;;;;;;4898641;29;20563;-79
2022/03/10 07:13:03;;;;;;;6.05;3.35;;;8.20;26.40;;;;;;4900594;29;20033;-78
2022/03/10 07:15:29;;;;;;;8.80;3.17;;;8.30;26.40;;;;;;4930092;29;20036;-78
2022/03/10 07:17:55;;;;;;;6.38;3.38;;;8.40;26.00;;;;;;4913799;29;20131;-79
2022/03/10 07:20:21;;;;;;;6.88;2.67;;;8.40;26.10;;;;;;4898605;29;20531;-79
2022/03/10 07:22:47;;;;;;;6.82;3.00;;;8.50;28.40;;;;;;4900940;29;20036;-79
2022/03/10 07:25:13;;;;;;;4.25;2.45;;;8.80;28.80;;;;;;4899628;29;20048;-79
2022/03/10 07:27:39;;;;;;;5.30;2.40;;;9.10;28.80;;;;;;4914394;28;20044;-79
2022/03/10 07:30:06;;;;;;;6.18;2.63;;;9.30;28.70;;;;;;4899967;29;21028;-77
2022/03/10 07:32:33;;;;;;;4.97;2.45;;;9.60;28.80;;;;;;4899549;29;20424;-79
2022/03/10 07:35:00;;;;;;;5.82;2.83;;;9.80;28.70;;;;;;4898502;28;20032;-79
2022/03/10 07:37:26;;;;;;;5.13;2.83;;;10.00;28.70;;;;;;4926193;29;20045;-79
2022/03/10 07:39:52;;;;;;;4.75;2.90;;;10.10;28.70;;;;;;4899076;29;20049;-80
2022/03/10 07:42:18;;;;;;;5.25;2.80;;;10.30;28.80;;;;;;4898284;29;20031;-78
2022/03/10 07:44:44;;;;;;;4.15;2.70;;;10.40;28.80;;;;;;4898069;29;20044;-79
2022/03/10 07:47:10;;;;;;;4.32;2.60;;;10.50;28.80;;;;;;4929857;28;20039;-78
2022/03/10 07:49:37;;;;;;;5.85;2.63;;;10.70;28.90;;;;;;4881764;29;20171;-79
2022/03/10 07:52:04;;;;;;;5.22;2.35;;;10.70;28.90;;;;;;4897953;29;20107;-78
2022/03/10 07:54:30;;;;;;;5.07;2.28;;;10.80;28.90;;;;;;4900064;29;20107;-79
2022/03/10 07:56:56;;;;;;;3.63;2.15;;;10.90;28.80;;;;;;4897080;29;20173;-78
2022/03/10 07:59:22;;;;;;;2.85;2.17;;;11.00;28.90;;;;;;4898190;29;20067;-78
2022/03/10 08:01:47;;;;;;;3.83;2.42;;;11.00;28.90;;;;;;4881789;29;20037;-79
2022/03/10 08:04:13;;;;;;;3.42;2.10;;;11.00;28.90;;;;;;4897597;29;20471;-78
2022/03/10 08:06:39;;;;;;;4.82;2.45;;;11.10;28.90;;;;;;4897934;29;20072;-78
2022/03/10 08:09:06;;;;;;;3.42;1.85;;;11.10;28.80;;;;;;4915096;29;20079;-78
2022/03/10 08:11:33;;;;;;;5.53;2.15;;;11.10;28.60;;;;;;4903303;29;20139;-79
2022/03/10 08:13:59;;;;;;;4.35;2.20;;;11.10;28.50;;;;;;4900228;28;20092;-77
2022/03/10 08:16:25;;;;;;;5.70;2.20;;;11.10;28.60;;;;;;4912762;29;20128;-77
2022/03/10 08:18:51;;;;;;;5.22;1.90;;;11.10;28.50;;;;;;4897282;29;20111;-77
2022/03/10 08:21:17;;;;;;;4.40;2.60;;;11.10;28.60;;;;;;4896464;29;20507;-78
2022/03/10 08:23:43;;;;;;;2.50;2.00;;;11.10;28.50;;;;;;4912804;29;20091;-78
2022/03/10 08:26:09;;;;;;;5.20;2.15;;;11.10;28.60;;;;;;4882692;29;20300;-78
2022/03/10 08:28:36;;;;;;;5.15;2.20;;;11.10;28.60;;;;;;4881515;29;20127;-78
2022/03/10 08:31:04;;;;;;;3.55;2.30;;;11.10;28.60;;;;;;4899167;29;20044;-78
2022/03/10 08:33:31;;;;;;;3.92;2.38;;;11.00;28.50;;;;;;4913006;29;20135;-78
2022/03/10 08:35:57;;;;;;;4.15;1.98;;;11.00;28.40;;;;;;4929089;28;20091;-78
2022/03/10 08:38:23;;;;;;;2.65;2.10;;;11.00;28.50;;;;;;4897277;29;20048;-78
2022/03/10 08:40:49;;;;;;;3.58;2.20;;;11.00;28.40;;;;;;4897786;28;20582;-78
2022/03/10 08:43:15;;;;;;;4.32;2.03;;;11.00;28.50;;;;;;4880390;29;20123;-79
2022/03/10 08:45:41;;;;;;;3.83;2.53;;;11.00;28.40;;;;;;4882097;28;20599;-78
2022/03/10 08:48:08;;;;;;;4.95;2.45;;;10.90;28.30;;;;;;4912942;29;20092;-78
2022/03/10 08:50:34;;;;;;;4.57;2.28;;;10.90;28.30;;;;;;4898076;29;20036;-78
2022/03/10 08:53:00;;;;;;;5.35;2.78;;;10.90;28.40;;;;;;4905877;29;20490;-78
2022/03/10 08:55:27;;;;;;;4.75;2.63;;;10.90;28.10;;;;;;4899284;29;20468;-78
2022/03/10 08:57:55;;;;;;;4.20;2.63;;;10.80;28.00;;;;;;4900251;29;21468;-79
2022/03/10 09:00:21;;;;;;;4.45;2.13;;;10.80;28.00;;;;;;4901662;29;20036;-77
2022/03/10 09:02:47;;;;;;;4.22;2.40;;;10.80;28.00;;;;;;4916928;29;20125;-78
2022/03/10 09:05:13;;;;;;;2.83;2.05;;;10.70;28.00;;;;;;4916407;28;20168;-78
2022/03/10 09:07:40;;;;;;;3.25;2.10;;;10.70;27.90;;;;;;4900985;28;20048;-79
2022/03/10 09:10:07;;;;;;;4.80;2.55;;;10.60;27.70;;;;;;4900696;29;20048;-78
2022/03/10 09:12:33;;;;;;;3.03;2.00;;;10.60;27.70;;;;;;4900706;29;20041;-79
2022/03/10 09:14:59;;;;;;;4.63;1.98;;;10.50;27.70;;;;;;4901231;29;20511;-78
2022/03/10 09:17:25;;;;;;;4.60;1.80;;;10.50;27.80;;;;;;4902044;28;20040;-79
2022/03/10 09:19:51;;;;;;;2.28;1.70;;;10.40;27.70;;;;;;4930860;28;20044;-79
2022/03/10 09:22:20;;;;;;;3.80;2.20;;;10.40;27.80;;;;;;4900666;28;20040;-77
2022/03/10 09:24:46;;;;;;;2.53;2.15;;;10.30;27.70;;;;;;4899618;28;20039;-78
2022/03/10 09:27:12;;;;;;;2.45;1.77;;;10.30;27.70;;;;;;4901041;29;20112;-78
2022/03/10 09:29:38;;;;;;;1.95;1.50;;;10.20;27.70;;;;;;4901514;29;20144;-78
2022/03/10 09:32:06;;;;;;;3.20;1.85;;;10.20;27.70;;;;;;4881486;29;20123;-78
2022/03/10 09:34:33;;;;;;;3.88;1.88;;;10.20;27.70;;;;;;4915405;28;20036;-77
2022/03/10 09:36:58;;;;;;;2.25;1.63;;;10.10;27.70;;;;;;4912610;28;20387;-78
2022/03/10 09:39:24;;;;;;;3.83;1.80;;;10.10;27.70;;;;;;4902211;29;20139;-79
2022/03/10 09:41:50;;;;;;;2.97;2.00;;;10.00;27.70;;;;;;4896538;28;20036;-79
2022/03/10 09:44:20;;;;;;;2.28;1.98;;;10.00;27.80;;;;;;4897952;29;20794;-79
2022/03/10 09:46:50;;;;;;;2.20;1.52;;;9.90;27.80;;;;;;4898389;28;20044;-78
2022/03/10 09:49:19;;;;;;;4.97;2.13;;;9.90;27.80;;;;;;4900303;29;20508;-78
2022/03/10 09:51:49;;;;;;;4.97;1.95;;;9.90;27.70;;;;;;4901118;29;20051;-78
2022/03/10 09:54:16;;;;;;;3.92;1.80;;;9.80;27.60;;;;;;4900670;29;20139;-79
2022/03/10 09:56:43;;;;;;;2.53;1.67;;;9.80;27.60;;;;;;4897251;29;20047;-79
2022/03/10 09:59:10;;;;;;;2.47;1.63;;;9.70;27.80;;;;;;4897485;29;20048;-78
2022/03/10 10:01:36;;;;;;;5.05;1.70;;;9.70;28.50;;;;;;4931366;28;20078;-79
2022/03/10 10:04:02;;;;;;;2.10;1.75;;;9.70;29.10;;;;;;4899552;28;20460;-78
2022/03/10 10:06:28;;;;;;;1.60;1.38;;;9.80;29.40;;;;;;4900919;29;20457;-81
2022/03/10 10:08:56;;;;;;;3.00;1.67;;;9.80;29.70;;;;;;4900423;29;20036;-78
2022/03/10 10:11:35;;;;;;;3.15;1.60;;;9.80;29.80;;;;;;4888294;29;20554;-79
2022/03/10 10:14:01;;;;;;;2.90;1.80;;;9.80;29.90;;;;;;4914514;28;20441;-79
2022/03/10 10:16:27;;;;;;;2.15;1.50;;;9.80;29.80;;;;;;4913996;28;20535;-79
2022/03/10 10:18:58;;;;;;;4.85;1.55;;;9.80;29.90;;;;;;4898551;28;20534;-79
2022/03/10 10:21:25;;;;;;;2.92;1.73;;;9.80;30.00;;;;;;4899538;29;20153;-78
2022/03/10 10:23:53;;;;;;;1.80;1.50;;;9.80;30.10;;;;;;4899755;28;20496;-79
2022/03/10 10:26:26;;;;;;;2.30;1.67;;;9.90;30.20;;;;;;4900665;28;20044;-79
2022/03/10 10:28:52;;;;;;;5.35;1.80;;;9.80;30.30;;;;;;4899807;29;20119;-79
2022/03/10 10:31:20;;;;;;;3.20;1.77;;;9.80;30.40;;;;;;4900837;28;20036;-80
2022/03/10 10:33:58;;;;;;;2.20;1.70;;;9.80;30.10;;;;;;4898633;28;20099;-79
2022/03/10 10:36:32;;;;;;;3.92;1.42;;;9.80;30.00;;;;;;4901463;29;20073;-78
2022/03/10 10:39:16;;;;;;;2.30;1.70;;;9.80;29.90;;;;;;4898337;29;20052;-80
2022/03/10 10:41:45;;;;;;;2.53;1.60;;;9.80;30.00;;;;;;4929460;28;20432;-79
2022/03/10 10:44:17;;;;;;;2.58;1.65;;;9.70;30.00;;;;;;4930365;28;20582;-81
2022/03/10 10:46:45;;;;;;;2.50;1.55;;;9.70;30.60;;;;;;4913274;28;20104;-80
2022/03/10 10:49:12;;;;;;;1.73;1.55;;;9.70;30.10;;;;;;4899617;28;20171;-80
2022/03/10 10:51:45;;;;;;;2.30;1.60;;;9.70;30.40;;;;;;4900449;29;20063;-80
2022/03/10 10:54:25;;;;;;;4.45;1.63;;;9.70;30.50;;;;;;4914642;29;20520;-81
2022/03/10 10:56:54;;;;;;;1.88;1.50;;;9.70;30.50;;;;;;4897444;29;20040;-80
2022/03/10 10:59:29;;;;;;;2.85;1.42;;;9.70;30.60;;;;;;4898421;28;20036;-79
2022/03/10 11:02:19;;;;;;;2.67;1.48;;;9.70;30.60;;;;;;4899442;29;20041;-80
2022/03/10 11:04:50;;;;;;;1.40;1.30;;;9.70;30.60;;;;;;4899608;29;20465;-80
2022/03/10 11:07:17;;;;;;;2.60;1.60;;;9.70;30.50;;;;;;4914010;28;20525;-79
2022/03/10 11:09:45;;;;;;;2.58;1.40;;;9.60;30.60;;;;;;4899054;28;20031;-80
2022/03/10 11:12:13;;;;;;;2.50;1.58;;;9.60;30.70;;;;;;4900671;29;20042;-80
2022/03/10 11:14:41;;;;;;;3.25;1.63;;;9.70;30.80;;;;;;4910984;29;20052;-79
2022/03/10 11:17:08;;;;;;;1.85;1.55;;;9.70;30.70;;;;;;4898270;28;20144;-79
2022/03/10 11:19:44;;;;;;;2.63;1.42;;;9.70;30.70;;;;;;4914418;29;20036;-81
2022/03/10 11:22:34;;;;;;;2.10;1.45;;;9.60;30.70;;;;;;4886573;29;20516;-82
2022/03/10 11:25:21;;;;;;;1.60;1.20;;;9.60;30.70;;;;;;4900218;28;20074;-82
2022/03/10 11:27:56;;;;;;;3.70;1.50;;;9.70;31.20;;;;;;4897937;29;20044;-83
2022/03/10 11:30:30;;;;;;;3.17;1.38;;;9.60;31.30;;;;;;4900197;29;20028;-82
2022/03/10 11:33:00;;;;;;;1.85;1.30;;;9.70;31.60;;;;;;4897217;29;20039;-83
2022/03/10 11:35:32;;;;;;;3.38;1.40;;;9.70;31.80;;;;;;4897589;29;20040;-81
2022/03/10 11:37:59;;;;;;;2.85;1.40;;;9.70;32.00;;;;;;4898206;28;20042;-82
2022/03/10 11:40:47;;;;;;;1.52;1.27;;;9.70;32.00;;;;;;4914188;28;20512;-82
2022/03/10 11:43:49;;;;;;;2.22;1.35;;;9.70;31.90;;;;;;4882903;29;20040;-82
2022/03/10 11:46:20;;;;;;;1.52;1.20;;;9.70;31.90;;;;;;4914494;28;20102;-82
2022/03/10 11:49:11;;;;;;;2.35;1.42;;;9.70;32.00;;;;;;4902508;28;20047;-82
2022/03/10 11:51:50;;;;;;;2.70;1.40;;;9.80;32.20;;;;;;4932379;29;20087;-81
2022/03/10 11:54:19;;;;;;;3.72;1.50;;;9.80;32.30;;;;;;4899461;29;20101;-82
2022/03/10 11:56:45;;;;;;;1.52;1.38;;;9.80;32.40;;;;;;4898417;29;20044;-82
2022/03/10 11:59:26;;;;;;;4.07;1.88;;;9.80;32.40;;;;;;4898649;28;20591;-82
2022/03/10 12:01:54;;;;;;;1.50;1.25;;;9.80;32.40;;;;;;4917726;29;20115;-81
2022/03/10 12:04:23;;;;;;;2.58;1.65;;;9.80;32.30;;;;;;4882409;29;20040;-82
2022/03/10 12:06:57;;;;;;;3.05;1.20;;;9.90;32.40;;;;;;4929805;29;20036;-85
2022/03/10 12:09:36;;;;;;;1.30;1.20;;;9.90;32.60;;;;;;4898382;29;20041;-81
2022/03/10 12:12:45;;;;;;;1.90;1.00;;;9.90;32.50;;;;;;4903557;29;20081;-82
2022/03/10 12:15:38;;;;;;;3.72;1.20;;;9.90;32.60;;;;;;4892482;29;20139;-82
2022/03/10 12:18:19;;;;;;;3.53;1.20;;;9.90;32.50;;;;;;4892696;29;20045;-82
2022/03/10 12:20:46;;;;;;;3.28;1.70;;;9.90;32.60;;;;;;4886919;29;20048;-82
2022/03/10 12:23:19;;;;;;;1.90;1.55;;;9.90;32.80;;;;;;4913232;29;20043;-81
2022/03/10 12:25:49;;;;;;;3.75;1.65;;;9.90;32.80;;;;;;4899428;28;20091;-82
2022/03/10 12:28:24;;;;;;;2.50;1.60;;;9.90;32.80;;;;;;4916470;28;20044;-82
2022/03/10 12:30:59;;;;;;;4.10;1.30;;;9.90;32.80;;;;;;4916985;28;20063;-81
2022/03/10 12:33:25;;;;;;;3.15;1.80;;;10.00;32.80;;;;;;4916012;29;20043;-81
2022/03/10 12:35:56;;;;;;;1.73;1.30;;;9.90;32.90;;;;;;4904817;29;20076;-82
2022/03/10 12:38:43;;;;;;;1.92;1.63;;;10.00;32.90;;;;;;4917831;29;20143;-81
2022/03/10 12:41:09;;;;;;;4.22;1.40;;;10.00;32.80;;;;;;4902551;28;20115;-81
2022/03/10 12:43:36;;;;;;;2.00;1.50;;;10.00;32.90;;;;;;4901271;29;20033;-81
2022/03/10 12:46:03;;;;;;;3.63;1.92;;;10.00;32.90;;;;;;4906253;28;20049;-83
2022/03/10 12:48:59;;;;;;;1.88;1.42;;;10.00;32.70;;;;;;4906109;29;20092;-82
2022/03/10 12:51:28;;;;;;;1.73;1.50;;;10.00;32.80;;;;;;4922223;29;20049;-82
2022/03/10 12:53:55;;;;;;;3.75;2.10;;;10.00;32.80;;;;;;4907603;29;21021;-81
2022/03/10 12:56:22;;;;;;;5.20;1.63;;;10.00;33.00;;;;;;4909087;28;20045;-82
2022/03/10 12:58:50;;;;;;;3.50;1.67;;;10.00;33.20;;;;;;4905493;29;20597;-82
2022/03/10 13:01:17;;;;;;;5.40;1.75;;;10.00;33.40;;;;;;4888256;29;20432;-82
2022/03/10 13:03:56;;;;;;;6.15;1.67;;;10.10;33.60;;;;;;4932760;28;20195;-82